sensor_id;sensor_type;location;lat;lon;timestamp;P1;durP1;ratioP1;P2;durP2;ratioP2
70153;SDS011;57519;51.494;-2.626;2023-02-08T00:00:23;44.25;;;22.58;;
70153;SDS011;57519;51.494;-2.626;2023-02-08T00:02:48;36.47;;;20.43;;
70153;SDS011;57519;51.494;-2.626;2023-02-08T00:05:14;35.67;;;20.05;;
70153;SDS011;57519;51.494;-2.626;2023-02-08T00:07:41;46.47;;;22.70;;
70153;SDS011;57519;51.494;-2.626;2023-02-08T00:10:06;43.33;;;22.30;;
70153;SDS011;57519;51.494;-2.626;2023-02-08T00:12:34;48.77;;;25.23;;
70153;SDS011;57519;51.494;-2.626;2023-02-08T00:15:00;46.47;;;24.98;;
70153;SDS011;57519;51.494;-2.626;2023-02-08T00:17:25;52.13;;;24.13;;
70153;SDS011;57519;51.494;-2.626;2023-02-08T00:19:51;43.70;;;24.33;;
70153;SDS011;57519;51.494;-2.626;2023-02-08T00:22:16;38.65;;;22.67;;
70153;SDS011;57519;51.494;-2.626;2023-02-08T00:24:41;41.30;;;21.87;;
70153;SDS011;57519;51.494;-2.626;2023-02-08T00:27:07;38.97;;;22.63;;
70153;SDS011;57519;51.494;-2.626;2023-02-08T00:29:32;45.10;;;20.63;;
70153;SDS011;57519;51.494;-2.626;2023-02-08T00:31:58;38.40;;;20.67;;
70153;SDS011;57519;51.494;-2.626;2023-02-08T00:34:23;40.40;;;21.10;;
70153;SDS011;57519;51.494;-2.626;2023-02-08T00:36:49;37.57;;;22.30;;
70153;SDS011;57519;51.494;-2.626;2023-02-08T00:39:14;34.03;;;19.70;;
70153;SDS011;57519;51.494;-2.626;2023-02-08T00:41:40;36.67;;;19.48;;
70153;SDS011;57519;51.494;-2.626;2023-02-08T00:44:05;42.83;;;20.73;;
70153;SDS011;57519;51.494;-2.626;2023-02-08T00:46:30;48.47;;;24.50;;
70153;SDS011;57519;51.494;-2.626;2023-02-08T00:48:56;34.80;;;19.30;;
70153;SDS011;57519;51.494;-2.626;2023-02-08T00:51:21;37.17;;;19.87;;
70153;SDS011;57519;51.494;-2.626;2023-02-08T00:53:46;31.08;;;17.58;;
70153;SDS011;57519;51.494;-2.626;2023-02-08T00:56:13;38.37;;;19.97;;
70153;SDS011;57519;51.494;-2.626;2023-02-08T00:58:39;34.28;;;18.42;;
70153;SDS011;57519;51.494;-2.626;2023-02-08T01:01:05;33.97;;;17.87;;
70153;SDS011;57519;51.494;-2.626;2023-02-08T01:03:32;36.50;;;18.25;;
70153;SDS011;57519;51.494;-2.626;2023-02-08T01:05:59;37.80;;;17.38;;
70153;SDS011;57519;51.494;-2.626;2023-02-08T01:08:26;34.97;;;17.05;;
70153;SDS011;57519;51.494;-2.626;2023-02-08T01:10:52;34.30;;;17.10;;
70153;SDS011;57519;51.494;-2.626;2023-02-08T01:13:17;31.60;;;16.53;;
70153;SDS011;57519;51.494;-2.626;2023-02-08T01:15:43;31.48;;;15.50;;
70153;SDS011;57519;51.494;-2.626;2023-02-08T01:18:08;32.70;;;17.70;;
70153;SDS011;57519;51.494;-2.626;2023-02-08T01:20:34;26.90;;;16.93;;
70153;SDS011;57519;51.494;-2.626;2023-02-08T01:23:01;26.77;;;15.32;;
70153;SDS011;57519;51.494;-2.626;2023-02-08T01:25:27;34.03;;;17.40;;
70153;SDS011;57519;51.494;-2.626;2023-02-08T01:27:52;34.50;;;18.13;;
70153;SDS011;57519;51.494;-2.626;2023-02-08T01:30:21;35.40;;;16.00;;
70153;SDS011;57519;51.494;-2.626;2023-02-08T01:32:46;27.20;;;16.90;;
70153;SDS011;57519;51.494;-2.626;2023-02-08T01:35:12;30.53;;;16.77;;
70153;SDS011;57519;51.494;-2.626;2023-02-08T01:37:37;33.20;;;17.27;;
70153;SDS011;57519;51.494;-2.626;2023-02-08T01:40:03;30.73;;;15.57;;
70153;SDS011;57519;51.494;-2.626;2023-02-08T01:42:28;31.15;;;14.27;;
70153;SDS011;57519;51.494;-2.626;2023-02-08T01:45:18;28.30;;;15.70;;
70153;SDS011;57519;51.494;-2.626;2023-02-08T01:47:49;37.65;;;16.73;;
70153;SDS011;57519;51.494;-2.626;2023-02-08T01:50:19;34.70;;;16.05;;
70153;SDS011;57519;51.494;-2.626;2023-02-08T01:52:47;28.70;;;15.40;;
70153;SDS011;57519;51.494;-2.626;2023-02-08T01:55:15;25.77;;;15.88;;
70153;SDS011;57519;51.494;-2.626;2023-02-08T01:57:44;26.90;;;14.88;;
70153;SDS011;57519;51.494;-2.626;2023-02-08T02:00:15;36.05;;;17.13;;
70153;SDS011;57519;51.494;-2.626;2023-02-08T02:02:46;32.73;;;17.03;;
70153;SDS011;57519;51.494;-2.626;2023-02-08T02:05:13;34.80;;;16.77;;
70153;SDS011;57519;51.494;-2.626;2023-02-08T02:07:44;28.40;;;14.73;;
70153;SDS011;57519;51.494;-2.626;2023-02-08T02:10:28;31.90;;;15.57;;
70153;SDS011;57519;51.494;-2.626;2023-02-08T02:13:01;27.08;;;14.80;;
70153;SDS011;57519;51.494;-2.626;2023-02-08T02:15:32;43.00;;;17.15;;
70153;SDS011;57519;51.494;-2.626;2023-02-08T02:17:58;22.48;;;15.02;;
70153;SDS011;57519;51.494;-2.626;2023-02-08T02:20:35;32.27;;;15.47;;
70153;SDS011;57519;51.494;-2.626;2023-02-08T02:26:11;24.70;;;14.65;;
70153;SDS011;57519;51.494;-2.626;2023-02-08T02:29:21;32.63;;;16.60;;
70153;SDS011;57519;51.494;-2.626;2023-02-08T02:34:45;24.90;;;14.20;;
70153;SDS011;57519;51.494;-2.626;2023-02-08T02:45:47;33.38;;;16.45;;
70153;SDS011;57519;51.494;-2.626;2023-02-08T02:48:29;26.53;;;15.47;;
70153;SDS011;57519;51.494;-2.626;2023-02-08T02:51:05;26.85;;;14.07;;
70153;SDS011;57519;51.494;-2.626;2023-02-08T02:56:13;28.85;;;14.50;;
70153;SDS011;57519;51.494;-2.626;2023-02-08T02:58:42;30.27;;;15.23;;
70153;SDS011;57519;51.494;-2.626;2023-02-08T03:01:09;30.57;;;14.57;;
70153;SDS011;57519;51.494;-2.626;2023-02-08T03:03:34;28.13;;;14.68;;
70153;SDS011;57519;51.494;-2.626;2023-02-08T03:06:02;16.50;;;12.30;;
70153;SDS011;57519;51.494;-2.626;2023-02-08T03:11:34;18.70;;;13.57;;
70153;SDS011;57519;51.494;-2.626;2023-02-08T03:17:15;25.35;;;13.93;;
70153;SDS011;57519;51.494;-2.626;2023-02-08T03:19:57;23.70;;;13.77;;
70153;SDS011;57519;51.494;-2.626;2023-02-08T03:22:27;30.58;;;13.85;;
70153;SDS011;57519;51.494;-2.626;2023-02-08T03:25:40;37.22;;;13.68;;
70153;SDS011;57519;51.494;-2.626;2023-02-08T03:30:31;28.95;;;15.40;;
70153;SDS011;57519;51.494;-2.626;2023-02-08T03:33:08;24.17;;;14.20;;
70153;SDS011;57519;51.494;-2.626;2023-02-08T03:35:49;27.23;;;15.02;;
70153;SDS011;57519;51.494;-2.626;2023-02-08T03:38:25;19.02;;;12.20;;
70153;SDS011;57519;51.494;-2.626;2023-02-08T03:40:53;27.70;;;13.80;;
70153;SDS011;57519;51.494;-2.626;2023-02-08T03:43:37;23.20;;;13.40;;
70153;SDS011;57519;51.494;-2.626;2023-02-08T03:46:19;25.80;;;12.93;;
70153;SDS011;57519;51.494;-2.626;2023-02-08T03:48:48;33.78;;;14.68;;
70153;SDS011;57519;51.494;-2.626;2023-02-08T03:51:18;22.92;;;12.63;;
70153;SDS011;57519;51.494;-2.626;2023-02-08T03:53:45;25.43;;;13.90;;
70153;SDS011;57519;51.494;-2.626;2023-02-08T03:56:17;20.85;;;12.63;;
70153;SDS011;57519;51.494;-2.626;2023-02-08T03:58:51;24.90;;;14.23;;
70153;SDS011;57519;51.494;-2.626;2023-02-08T04:01:24;31.02;;;14.40;;
70153;SDS011;57519;51.494;-2.626;2023-02-08T04:03:53;25.17;;;11.50;;
70153;SDS011;57519;51.494;-2.626;2023-02-08T04:06:20;23.47;;;12.20;;
70153;SDS011;57519;51.494;-2.626;2023-02-08T04:08:46;20.05;;;13.15;;
70153;SDS011;57519;51.494;-2.626;2023-02-08T04:11:12;25.70;;;12.80;;
70153;SDS011;57519;51.494;-2.626;2023-02-08T04:13:38;23.33;;;12.13;;
70153;SDS011;57519;51.494;-2.626;2023-02-08T04:16:03;20.83;;;11.70;;
70153;SDS011;57519;51.494;-2.626;2023-02-08T04:18:29;28.03;;;12.83;;
70153;SDS011;57519;51.494;-2.626;2023-02-08T04:20:54;30.27;;;14.13;;
70153;SDS011;57519;51.494;-2.626;2023-02-08T04:23:20;25.13;;;12.90;;
70153;SDS011;57519;51.494;-2.626;2023-02-08T04:25:45;18.83;;;12.93;;
70153;SDS011;57519;51.494;-2.626;2023-02-08T04:28:11;25.00;;;12.50;;
70153;SDS011;57519;51.494;-2.626;2023-02-08T04:30:36;24.42;;;12.35;;
70153;SDS011;57519;51.494;-2.626;2023-02-08T04:33:02;25.90;;;12.43;;
70153;SDS011;57519;51.494;-2.626;2023-02-08T04:35:27;22.43;;;11.53;;
70153;SDS011;57519;51.494;-2.626;2023-02-08T04:37:53;26.55;;;11.73;;
70153;SDS011;57519;51.494;-2.626;2023-02-08T04:40:19;20.90;;;12.10;;
70153;SDS011;57519;51.494;-2.626;2023-02-08T04:42:44;14.80;;;10.47;;
70153;SDS011;57519;51.494;-2.626;2023-02-08T04:45:09;21.45;;;12.57;;
70153;SDS011;57519;51.494;-2.626;2023-02-08T04:47:35;25.23;;;12.70;;
70153;SDS011;57519;51.494;-2.626;2023-02-08T04:50:00;25.43;;;12.53;;
70153;SDS011;57519;51.494;-2.626;2023-02-08T04:52:26;21.20;;;11.83;;
70153;SDS011;57519;51.494;-2.626;2023-02-08T04:54:51;27.88;;;11.90;;
70153;SDS011;57519;51.494;-2.626;2023-02-08T04:57:17;21.93;;;10.37;;
70153;SDS011;57519;51.494;-2.626;2023-02-08T04:59:42;25.43;;;10.60;;
70153;SDS011;57519;51.494;-2.626;2023-02-08T05:02:08;23.83;;;11.23;;
70153;SDS011;57519;51.494;-2.626;2023-02-08T05:04:33;30.13;;;13.30;;
70153;SDS011;57519;51.494;-2.626;2023-02-08T05:06:59;26.60;;;12.25;;
70153;SDS011;57519;51.494;-2.626;2023-02-08T05:09:25;22.77;;;12.93;;
70153;SDS011;57519;51.494;-2.626;2023-02-08T05:11:50;21.57;;;12.87;;
70153;SDS011;57519;51.494;-2.626;2023-02-08T05:14:16;24.40;;;11.97;;
70153;SDS011;57519;51.494;-2.626;2023-02-08T05:16:41;29.65;;;13.18;;
70153;SDS011;57519;51.494;-2.626;2023-02-08T05:19:06;24.30;;;13.93;;
70153;SDS011;57519;51.494;-2.626;2023-02-08T05:21:34;26.50;;;13.45;;
70153;SDS011;57519;51.494;-2.626;2023-02-08T05:24:00;19.83;;;11.93;;
70153;SDS011;57519;51.494;-2.626;2023-02-08T05:26:25;22.60;;;11.80;;
70153;SDS011;57519;51.494;-2.626;2023-02-08T05:28:50;27.10;;;15.17;;
70153;SDS011;57519;51.494;-2.626;2023-02-08T05:31:17;20.03;;;13.20;;
70153;SDS011;57519;51.494;-2.626;2023-02-08T05:33:47;23.48;;;12.40;;
70153;SDS011;57519;51.494;-2.626;2023-02-08T05:36:13;20.35;;;12.80;;
70153;SDS011;57519;51.494;-2.626;2023-02-08T05:38:38;21.80;;;12.00;;
70153;SDS011;57519;51.494;-2.626;2023-02-08T05:41:04;25.73;;;13.27;;
70153;SDS011;57519;51.494;-2.626;2023-02-08T05:43:29;31.87;;;14.30;;
70153;SDS011;57519;51.494;-2.626;2023-02-08T05:45:55;22.93;;;14.83;;
70153;SDS011;57519;51.494;-2.626;2023-02-08T05:48:20;19.73;;;13.30;;
70153;SDS011;57519;51.494;-2.626;2023-02-08T05:50:46;28.52;;;14.38;;
70153;SDS011;57519;51.494;-2.626;2023-02-08T05:53:11;22.63;;;14.27;;
70153;SDS011;57519;51.494;-2.626;2023-02-08T05:55:37;18.33;;;13.03;;
70153;SDS011;57519;51.494;-2.626;2023-02-08T05:58:02;24.85;;;12.82;;
70153;SDS011;57519;51.494;-2.626;2023-02-08T06:00:28;27.53;;;15.43;;
70153;SDS011;57519;51.494;-2.626;2023-02-08T06:02:53;28.90;;;14.87;;
70153;SDS011;57519;51.494;-2.626;2023-02-08T06:05:19;27.27;;;14.43;;
70153;SDS011;57519;51.494;-2.626;2023-02-08T06:07:44;23.87;;;14.13;;
70153;SDS011;57519;51.494;-2.626;2023-02-08T06:10:10;22.07;;;14.43;;
70153;SDS011;57519;51.494;-2.626;2023-02-08T06:12:35;23.87;;;13.47;;
70153;SDS011;57519;51.494;-2.626;2023-02-08T06:15:01;32.75;;;14.80;;
70153;SDS011;57519;51.494;-2.626;2023-02-08T06:17:26;22.80;;;13.37;;
70153;SDS011;57519;51.494;-2.626;2023-02-08T06:19:52;19.67;;;11.93;;
70153;SDS011;57519;51.494;-2.626;2023-02-08T06:22:17;24.90;;;13.32;;
70153;SDS011;57519;51.494;-2.626;2023-02-08T06:24:42;26.27;;;12.70;;
70153;SDS011;57519;51.494;-2.626;2023-02-08T06:27:08;25.00;;;13.83;;
70153;SDS011;57519;51.494;-2.626;2023-02-08T06:29:33;29.13;;;14.77;;
70153;SDS011;57519;51.494;-2.626;2023-02-08T06:31:59;31.77;;;15.60;;
70153;SDS011;57519;51.494;-2.626;2023-02-08T06:34:24;27.58;;;15.13;;
70153;SDS011;57519;51.494;-2.626;2023-02-08T06:36:50;18.93;;;12.23;;
70153;SDS011;57519;51.494;-2.626;2023-02-08T06:39:15;26.47;;;13.53;;
70153;SDS011;57519;51.494;-2.626;2023-02-08T06:41:40;23.80;;;11.83;;
70153;SDS011;57519;51.494;-2.626;2023-02-08T06:44:06;22.40;;;14.37;;
70153;SDS011;57519;51.494;-2.626;2023-02-08T06:46:31;30.65;;;13.63;;
70153;SDS011;57519;51.494;-2.626;2023-02-08T06:48:57;27.60;;;14.63;;
70153;SDS011;57519;51.494;-2.626;2023-02-08T06:51:24;18.95;;;11.73;;
70153;SDS011;57519;51.494;-2.626;2023-02-08T06:53:50;26.43;;;14.67;;
70153;SDS011;57519;51.494;-2.626;2023-02-08T06:56:15;28.20;;;13.73;;
70153;SDS011;57519;51.494;-2.626;2023-02-08T06:58:41;36.40;;;15.60;;
70153;SDS011;57519;51.494;-2.626;2023-02-08T07:01:10;23.23;;;14.27;;
70153;SDS011;57519;51.494;-2.626;2023-02-08T07:03:36;30.30;;;14.70;;
70153;SDS011;57519;51.494;-2.626;2023-02-08T07:06:01;36.00;;;14.30;;
70153;SDS011;57519;51.494;-2.626;2023-02-08T07:08:27;26.20;;;15.00;;
70153;SDS011;57519;51.494;-2.626;2023-02-08T07:10:52;24.17;;;13.43;;
70153;SDS011;57519;51.494;-2.626;2023-02-08T07:13:18;35.00;;;16.57;;
70153;SDS011;57519;51.494;-2.626;2023-02-08T07:15:43;30.77;;;15.47;;
70153;SDS011;57519;51.494;-2.626;2023-02-08T07:18:08;32.07;;;14.07;;
70153;SDS011;57519;51.494;-2.626;2023-02-08T07:20:34;23.63;;;13.45;;
70153;SDS011;57519;51.494;-2.626;2023-02-08T07:22:59;24.73;;;14.23;;
70153;SDS011;57519;51.494;-2.626;2023-02-08T07:25:25;24.00;;;13.30;;
70153;SDS011;57519;51.494;-2.626;2023-02-08T07:27:50;23.33;;;13.67;;
70153;SDS011;57519;51.494;-2.626;2023-02-08T07:30:16;29.83;;;15.27;;
70153;SDS011;57519;51.494;-2.626;2023-02-08T07:32:41;27.03;;;15.20;;
70153;SDS011;57519;51.494;-2.626;2023-02-08T07:35:06;26.50;;;14.57;;
70153;SDS011;57519;51.494;-2.626;2023-02-08T07:37:32;35.53;;;18.40;;
70153;SDS011;57519;51.494;-2.626;2023-02-08T07:39:58;38.97;;;16.80;;
70153;SDS011;57519;51.494;-2.626;2023-02-08T07:42:23;34.67;;;16.47;;
70153;SDS011;57519;51.494;-2.626;2023-02-08T07:44:48;31.00;;;15.10;;
70153;SDS011;57519;51.494;-2.626;2023-02-08T07:47:14;31.30;;;16.15;;
70153;SDS011;57519;51.494;-2.626;2023-02-08T07:49:41;35.97;;;16.05;;
70153;SDS011;57519;51.494;-2.626;2023-02-08T07:52:06;27.40;;;14.57;;
70153;SDS011;57519;51.494;-2.626;2023-02-08T07:54:31;29.97;;;16.07;;
70153;SDS011;57519;51.494;-2.626;2023-02-08T07:56:57;35.40;;;15.18;;
70153;SDS011;57519;51.494;-2.626;2023-02-08T07:59:22;36.20;;;17.13;;
70153;SDS011;57519;51.494;-2.626;2023-02-08T08:01:48;26.07;;;16.00;;
70153;SDS011;57519;51.494;-2.626;2023-02-08T08:04:13;36.73;;;17.47;;
70153;SDS011;57519;51.494;-2.626;2023-02-08T08:06:39;27.35;;;13.73;;
70153;SDS011;57519;51.494;-2.626;2023-02-08T08:09:04;26.07;;;13.87;;
70153;SDS011;57519;51.494;-2.626;2023-02-08T08:11:30;27.07;;;12.93;;
70153;SDS011;57519;51.494;-2.626;2023-02-08T08:13:55;28.17;;;14.27;;
70153;SDS011;57519;51.494;-2.626;2023-02-08T08:16:21;28.20;;;15.30;;
70153;SDS011;57519;51.494;-2.626;2023-02-08T08:18:46;24.73;;;14.93;;
70153;SDS011;57519;51.494;-2.626;2023-02-08T08:21:12;31.38;;;13.82;;
70153;SDS011;57519;51.494;-2.626;2023-02-08T08:23:37;24.23;;;14.03;;
70153;SDS011;57519;51.494;-2.626;2023-02-08T08:26:14;28.07;;;13.97;;
70153;SDS011;57519;51.494;-2.626;2023-02-08T08:28:41;24.77;;;13.07;;
70153;SDS011;57519;51.494;-2.626;2023-02-08T08:31:18;34.50;;;15.85;;
70153;SDS011;57519;51.494;-2.626;2023-02-08T08:33:44;35.22;;;17.20;;
70153;SDS011;57519;51.494;-2.626;2023-02-08T08:36:10;30.20;;;14.33;;
70153;SDS011;57519;51.494;-2.626;2023-02-08T08:38:35;27.48;;;15.32;;
70153;SDS011;57519;51.494;-2.626;2023-02-08T08:41:09;32.17;;;14.70;;
70153;SDS011;57519;51.494;-2.626;2023-02-08T08:43:36;33.92;;;16.65;;
70153;SDS011;57519;51.494;-2.626;2023-02-08T08:46:03;37.67;;;16.63;;
70153;SDS011;57519;51.494;-2.626;2023-02-08T08:48:30;26.92;;;15.25;;
70153;SDS011;57519;51.494;-2.626;2023-02-08T08:50:55;21.90;;;12.10;;
70153;SDS011;57519;51.494;-2.626;2023-02-08T08:53:20;26.80;;;15.23;;
70153;SDS011;57519;51.494;-2.626;2023-02-08T08:55:46;35.30;;;17.13;;
70153;SDS011;57519;51.494;-2.626;2023-02-08T08:58:11;35.87;;;15.67;;
70153;SDS011;57519;51.494;-2.626;2023-02-08T09:00:37;37.35;;;18.60;;
70153;SDS011;57519;51.494;-2.626;2023-02-08T09:03:03;31.77;;;18.80;;
70153;SDS011;57519;51.494;-2.626;2023-02-08T09:05:28;31.70;;;17.77;;
70153;SDS011;57519;51.494;-2.626;2023-02-08T09:07:54;32.50;;;18.40;;
70153;SDS011;57519;51.494;-2.626;2023-02-08T09:10:19;34.77;;;18.27;;
70153;SDS011;57519;51.494;-2.626;2023-02-08T09:12:44;35.63;;;15.77;;
70153;SDS011;57519;51.494;-2.626;2023-02-08T09:15:10;33.17;;;16.93;;
70153;SDS011;57519;51.494;-2.626;2023-02-08T09:17:35;42.78;;;16.67;;
70153;SDS011;57519;51.494;-2.626;2023-02-08T09:20:01;31.53;;;16.57;;
70153;SDS011;57519;51.494;-2.626;2023-02-08T09:22:27;40.88;;;18.50;;
70153;SDS011;57519;51.494;-2.626;2023-02-08T09:24:52;42.90;;;17.37;;
70153;SDS011;57519;51.494;-2.626;2023-02-08T09:27:18;32.93;;;19.03;;
70153;SDS011;57519;51.494;-2.626;2023-02-08T09:29:43;40.08;;;18.30;;
70153;SDS011;57519;51.494;-2.626;2023-02-08T09:32:08;36.17;;;18.27;;
70153;SDS011;57519;51.494;-2.626;2023-02-08T09:34:34;33.97;;;17.83;;
70153;SDS011;57519;51.494;-2.626;2023-02-08T09:36:59;33.63;;;17.57;;
70153;SDS011;57519;51.494;-2.626;2023-02-08T09:39:25;38.60;;;18.00;;
70153;SDS011;57519;51.494;-2.626;2023-02-08T09:50:36;37.22;;;17.77;;
70153;SDS011;57519;51.494;-2.626;2023-02-08T09:53:14;32.97;;;16.42;;
70153;SDS011;57519;51.494;-2.626;2023-02-08T09:58:14;50.30;;;18.90;;
70153;SDS011;57519;51.494;-2.626;2023-02-08T10:00:45;33.15;;;16.52;;
70153;SDS011;57519;51.494;-2.626;2023-02-08T10:03:18;43.05;;;18.90;;
70153;SDS011;57519;51.494;-2.626;2023-02-08T10:05:52;39.42;;;18.02;;
70153;SDS011;57519;51.494;-2.626;2023-02-08T10:08:17;33.57;;;17.50;;
70153;SDS011;57519;51.494;-2.626;2023-02-08T10:11:28;40.88;;;16.73;;
70153;SDS011;57519;51.494;-2.626;2023-02-08T10:22:00;39.53;;;17.73;;
70153;SDS011;57519;51.494;-2.626;2023-02-08T10:27:19;38.80;;;18.40;;
70153;SDS011;57519;51.494;-2.626;2023-02-08T10:30:06;37.90;;;17.23;;
70153;SDS011;57519;51.494;-2.626;2023-02-08T10:32:58;34.05;;;18.25;;
70153;SDS011;57519;51.494;-2.626;2023-02-08T10:35:30;42.63;;;18.92;;
70153;SDS011;57519;51.494;-2.626;2023-02-08T10:38:24;33.25;;;17.55;;
70153;SDS011;57519;51.494;-2.626;2023-02-08T10:41:02;32.73;;;18.43;;
70153;SDS011;57519;51.494;-2.626;2023-02-08T10:51:19;36.97;;;20.15;;
70153;SDS011;57519;51.494;-2.626;2023-02-08T10:53:45;46.70;;;23.37;;
70153;SDS011;57519;51.494;-2.626;2023-02-08T10:58:59;44.03;;;23.42;;
70153;SDS011;57519;51.494;-2.626;2023-02-08T11:01:29;40.47;;;22.77;;
70153;SDS011;57519;51.494;-2.626;2023-02-08T11:04:04;40.95;;;21.17;;
70153;SDS011;57519;51.494;-2.626;2023-02-08T11:06:34;42.47;;;20.50;;
70153;SDS011;57519;51.494;-2.626;2023-02-08T11:08:59;33.05;;;16.98;;
70153;SDS011;57519;51.494;-2.626;2023-02-08T11:11:25;34.40;;;19.27;;
70153;SDS011;57519;51.494;-2.626;2023-02-08T11:13:51;32.17;;;18.45;;
70153;SDS011;57519;51.494;-2.626;2023-02-08T11:18:48;30.77;;;16.25;;
70153;SDS011;57519;51.494;-2.626;2023-02-08T11:21:20;26.13;;;15.10;;
70153;SDS011;57519;51.494;-2.626;2023-02-08T11:23:49;25.17;;;15.00;;
70153;SDS011;57519;51.494;-2.626;2023-02-08T11:32:02;26.95;;;13.27;;
70153;SDS011;57519;51.494;-2.626;2023-02-08T11:36:57;26.17;;;13.60;;
70153;SDS011;57519;51.494;-2.626;2023-02-08T11:39:48;27.23;;;13.45;;
70153;SDS011;57519;51.494;-2.626;2023-02-08T11:42:22;23.05;;;12.93;;
70153;SDS011;57519;51.494;-2.626;2023-02-08T11:44:50;23.98;;;13.43;;
70153;SDS011;57519;51.494;-2.626;2023-02-08T11:47:17;26.67;;;14.23;;
70153;SDS011;57519;51.494;-2.626;2023-02-08T11:50:07;28.90;;;13.60;;
70153;SDS011;57519;51.494;-2.626;2023-02-08T11:52:48;30.90;;;13.80;;
70153;SDS011;57519;51.494;-2.626;2023-02-08T11:58:00;25.70;;;12.70;;
70153;SDS011;57519;51.494;-2.626;2023-02-08T12:00:34;26.40;;;13.38;;
70153;SDS011;57519;51.494;-2.626;2023-02-08T12:03:13;23.98;;;13.18;;
70153;SDS011;57519;51.494;-2.626;2023-02-08T12:17:05;20.95;;;10.35;;
70153;SDS011;57519;51.494;-2.626;2023-02-08T12:22:25;19.45;;;10.43;;
70153;SDS011;57519;51.494;-2.626;2023-02-08T12:27:41;21.17;;;11.07;;
70153;SDS011;57519;51.494;-2.626;2023-02-08T12:30:20;19.67;;;10.85;;
70153;SDS011;57519;51.494;-2.626;2023-02-08T12:33:14;21.13;;;10.70;;
70153;SDS011;57519;51.494;-2.626;2023-02-08T12:52:30;22.00;;;10.65;;
70153;SDS011;57519;51.494;-2.626;2023-02-08T12:57:43;19.23;;;10.13;;
70153;SDS011;57519;51.494;-2.626;2023-02-08T13:00:15;22.30;;;9.43;;
70153;SDS011;57519;51.494;-2.626;2023-02-08T13:05:20;14.63;;;7.18;;
70153;SDS011;57519;51.494;-2.626;2023-02-08T13:07:47;21.70;;;8.73;;
70153;SDS011;57519;51.494;-2.626;2023-02-08T13:10:24;15.30;;;8.13;;
70153;SDS011;57519;51.494;-2.626;2023-02-08T13:12:55;15.60;;;7.82;;
70153;SDS011;57519;51.494;-2.626;2023-02-08T13:15:38;14.82;;;8.07;;
70153;SDS011;57519;51.494;-2.626;2023-02-08T13:18:13;15.18;;;7.38;;
70153;SDS011;57519;51.494;-2.626;2023-02-08T13:20:46;16.20;;;8.13;;
70153;SDS011;57519;51.494;-2.626;2023-02-08T13:23:37;19.65;;;8.98;;
70153;SDS011;57519;51.494;-2.626;2023-02-08T13:26:02;15.63;;;8.52;;
70153;SDS011;57519;51.494;-2.626;2023-02-08T13:28:32;16.52;;;8.65;;
70153;SDS011;57519;51.494;-2.626;2023-02-08T13:31:00;15.97;;;8.27;;
70153;SDS011;57519;51.494;-2.626;2023-02-08T13:33:32;16.53;;;8.50;;
70153;SDS011;57519;51.494;-2.626;2023-02-08T13:36:18;13.40;;;6.68;;
70153;SDS011;57519;51.494;-2.626;2023-02-08T13:38:48;12.38;;;6.78;;
70153;SDS011;57519;51.494;-2.626;2023-02-08T13:41:15;12.95;;;6.82;;
70153;SDS011;57519;51.494;-2.626;2023-02-08T13:43:45;14.48;;;8.07;;
70153;SDS011;57519;51.494;-2.626;2023-02-08T13:46:15;16.87;;;8.23;;
70153;SDS011;57519;51.494;-2.626;2023-02-08T13:48:42;14.70;;;7.50;;
70153;SDS011;57519;51.494;-2.626;2023-02-08T13:51:55;10.57;;;7.00;;
70153;SDS011;57519;51.494;-2.626;2023-02-08T13:54:15;12.65;;;6.60;;
70153;SDS011;57519;51.494;-2.626;2023-02-08T13:56:48;15.77;;;8.03;;
70153;SDS011;57519;51.494;-2.626;2023-02-08T14:04:36;12.03;;;7.13;;
70153;SDS011;57519;51.494;-2.626;2023-02-08T14:07:48;16.50;;;8.38;;
70153;SDS011;57519;51.494;-2.626;2023-02-08T14:10:06;12.80;;;6.97;;
70153;SDS011;57519;51.494;-2.626;2023-02-08T14:15:37;11.55;;;6.55;;
70153;SDS011;57519;51.494;-2.626;2023-02-08T14:18:04;15.13;;;8.33;;
70153;SDS011;57519;51.494;-2.626;2023-02-08T14:20:53;17.83;;;8.50;;
70153;SDS011;57519;51.494;-2.626;2023-02-08T14:23:26;13.38;;;7.28;;
70153;SDS011;57519;51.494;-2.626;2023-02-08T14:25:56;20.30;;;9.75;;
70153;SDS011;57519;51.494;-2.626;2023-02-08T14:31:10;19.00;;;8.73;;
70153;SDS011;57519;51.494;-2.626;2023-02-08T14:33:54;13.73;;;7.95;;
70153;SDS011;57519;51.494;-2.626;2023-02-08T14:39:04;12.05;;;7.68;;
70153;SDS011;57519;51.494;-2.626;2023-02-08T14:41:49;21.17;;;9.00;;
70153;SDS011;57519;51.494;-2.626;2023-02-08T14:47:03;17.35;;;9.00;;
70153;SDS011;57519;51.494;-2.626;2023-02-08T14:49:34;14.43;;;8.95;;
70153;SDS011;57519;51.494;-2.626;2023-02-08T14:52:19;14.23;;;8.40;;
70153;SDS011;57519;51.494;-2.626;2023-02-08T14:54:49;13.05;;;8.82;;
70153;SDS011;57519;51.494;-2.626;2023-02-08T14:57:24;15.23;;;8.73;;
70153;SDS011;57519;51.494;-2.626;2023-02-08T14:59:53;20.45;;;9.40;;
70153;SDS011;57519;51.494;-2.626;2023-02-08T15:02:22;16.73;;;7.93;;
70153;SDS011;57519;51.494;-2.626;2023-02-08T15:04:50;16.70;;;7.93;;
70153;SDS011;57519;51.494;-2.626;2023-02-08T15:10:21;17.63;;;8.60;;
70153;SDS011;57519;51.494;-2.626;2023-02-08T15:12:49;17.33;;;8.60;;
70153;SDS011;57519;51.494;-2.626;2023-02-08T15:18:03;15.10;;;8.30;;
70153;SDS011;57519;51.494;-2.626;2023-02-08T15:20:32;16.25;;;8.10;;
70153;SDS011;57519;51.494;-2.626;2023-02-08T15:23:03;24.77;;;10.73;;
70153;SDS011;57519;51.494;-2.626;2023-02-08T15:25:40;18.40;;;8.63;;
70153;SDS011;57519;51.494;-2.626;2023-02-08T15:28:17;20.73;;;9.27;;
70153;SDS011;57519;51.494;-2.626;2023-02-08T15:30:45;17.40;;;9.05;;
70153;SDS011;57519;51.494;-2.626;2023-02-08T15:33:19;23.52;;;10.07;;
70153;SDS011;57519;51.494;-2.626;2023-02-08T15:35:45;20.80;;;9.57;;
70153;SDS011;57519;51.494;-2.626;2023-02-08T15:38:20;18.77;;;10.02;;
70153;SDS011;57519;51.494;-2.626;2023-02-08T15:43:25;18.05;;;9.02;;
70153;SDS011;57519;51.494;-2.626;2023-02-08T15:45:57;21.93;;;11.80;;
70153;SDS011;57519;51.494;-2.626;2023-02-08T15:48:24;22.20;;;11.27;;
70153;SDS011;57519;51.494;-2.626;2023-02-08T15:50:51;26.38;;;11.80;;
70153;SDS011;57519;51.494;-2.626;2023-02-08T15:53:18;20.97;;;10.97;;
70153;SDS011;57519;51.494;-2.626;2023-02-08T15:55:47;24.20;;;11.25;;
70153;SDS011;57519;51.494;-2.626;2023-02-08T16:01:04;38.95;;;15.10;;
70153;SDS011;57519;51.494;-2.626;2023-02-08T16:03:32;32.23;;;12.87;;
70153;SDS011;57519;51.494;-2.626;2023-02-08T16:06:02;35.20;;;15.57;;
70153;SDS011;57519;51.494;-2.626;2023-02-08T16:08:31;29.88;;;13.60;;
70153;SDS011;57519;51.494;-2.626;2023-02-08T16:11:42;33.67;;;14.65;;
70153;SDS011;57519;51.494;-2.626;2023-02-08T16:13:50;32.70;;;13.30;;
70153;SDS011;57519;51.494;-2.626;2023-02-08T16:18:47;37.38;;;14.45;;
70153;SDS011;57519;51.494;-2.626;2023-02-08T16:21:35;25.67;;;11.27;;
70153;SDS011;57519;51.494;-2.626;2023-02-08T16:24:18;26.77;;;11.63;;
70153;SDS011;57519;51.494;-2.626;2023-02-08T16:29:18;21.73;;;10.97;;
70153;SDS011;57519;51.494;-2.626;2023-02-08T16:31:54;23.70;;;10.75;;
70153;SDS011;57519;51.494;-2.626;2023-02-08T16:34:43;22.02;;;11.30;;
70153;SDS011;57519;51.494;-2.626;2023-02-08T16:37:25;25.73;;;11.87;;
70153;SDS011;57519;51.494;-2.626;2023-02-08T16:40:00;26.13;;;11.27;;
70153;SDS011;57519;51.494;-2.626;2023-02-08T16:42:44;26.45;;;11.52;;
70153;SDS011;57519;51.494;-2.626;2023-02-08T16:45:11;29.43;;;11.83;;
70153;SDS011;57519;51.494;-2.626;2023-02-08T16:47:39;28.60;;;11.23;;